Time;durP1;ratioP1;P1;durP2;ratioP2;P2;SDS_P1;SDS_P2;PMS_P1;PMS_P2;Temp;Humidity;BMP_temperature;BMP_pressure;BME280_temperature;BME280_humidity;BME280_pressure;Samples;Min_cycle;Max_cycle;Signal;HPM_P1;HPM_P2
2021/07/10 08:55:20;;;;;;;6.60;3.20;;;;;;;;;;6179486;22;1793154;-85
2021/07/10 08:57:46;;;;;;;8.35;3.60;;;;;;;;;;6193203;23;20016;-87
2021/07/10 09:03:17;;;;;;;3.80;2.60;;;;;;;;;;6200134;23;20107;-88
2021/07/10 09:05:43;;;;;;;4.65;3.35;;;;;;;;;;6191499;23;19997;-90
2021/07/10 09:11:17;;;;;;;7.45;3.55;;;;;;;;;;6194351;23;20047;-89
2021/07/10 09:20:29;;;;;;;4.10;2.80;;;;;;;;;;6193999;23;20473;-89
2021/07/10 09:22:55;;;;;;;3.38;2.72;;;;;;;;;;6189689;23;20001;-90
2021/07/10 09:25:32;;;;;;;5.55;2.70;;;;;;;;;;6190134;23;20005;-90
2021/07/10 09:28:05;;;;;;;3.80;2.78;;;;;;;;;;6189391;23;20008;-91
2021/07/10 09:30:35;;;;;;;4.88;2.70;;;;;;;;;;6189686;23;20636;-90
2021/07/10 09:33:19;;;;;;;5.80;2.72;;;;;;;;;;6189340;23;20011;-90
2021/07/10 09:35:56;;;;;;;4.30;2.58;;;;;;;;;;6188367;23;20001;-90
2021/07/10 09:38:27;;;;;;;4.50;2.50;;;;;;;;;;6189910;23;20027;-91
2021/07/10 09:41:02;;;;;;;5.18;2.70;;;;;;;;;;6191517;23;19997;-90
2021/07/10 09:43:30;;;;;;;12.70;2.78;;;;;;;;;;6190729;23;20009;-91
2021/07/10 09:45:57;;;;;;;2.92;2.25;;;;;;;;;;6189644;23;20032;-91
2021/07/10 09:48:28;;;;;;;5.75;2.38;;;;;;;;;;6190384;23;20096;-91
2021/07/10 09:51:16;;;;;;;3.72;2.25;;;;;;;;;;6191410;23;20009;-90
2021/07/10 09:53:41;;;;;;;3.53;2.40;;;;;;;;;;6190385;23;20379;-90
2021/07/10 09:56:11;;;;;;;4.72;2.63;;;;;;;;;;6183748;23;20027;-90
2021/07/10 09:58:38;;;;;;;4.22;2.20;;;;;;;;;;6184528;23;20340;-90
2021/07/10 10:01:33;;;;;;;3.97;2.55;;;;;;;;;;6185046;23;20012;-90
2021/07/10 10:04:36;;;;;;;3.10;2.45;;;;;;;;;;6158132;23;20028;-90
2021/07/10 10:07:09;;;;;;;3.38;2.53;;;;;;;;;;6158688;23;20001;-91
2021/07/10 10:09:35;;;;;;;4.38;2.60;;;;;;;;;;6158508;23;20017;-91
2021/07/10 10:12:13;;;;;;;3.75;2.30;;;;;;;;;;6184500;23;20328;-91
2021/07/10 10:14:41;;;;;;;3.45;2.53;;;;;;;;;;6157554;23;20387;-90
2021/07/10 10:17:07;;;;;;;3.35;2.70;;;;;;;;;;6157895;23;20309;-91
2021/07/10 10:19:33;;;;;;;3.65;2.28;;;;;;;;;;6157727;23;20005;-91
2021/07/10 10:22:03;;;;;;;3.17;2.47;;;;;;;;;;6158656;23;20001;-90
2021/07/10 10:24:30;;;;;;;3.30;2.78;;;;;;;;;;6184341;23;20001;-90
2021/07/10 10:26:57;;;;;;;5.03;2.50;;;;;;;;;;6158607;23;19997;-91
2021/07/10 10:29:25;;;;;;;7.20;3.05;;;;;;;;;;6184761;23;20048;-90
2021/07/10 10:31:52;;;;;;;14.18;6.35;;;;;;;;;;6183002;23;20032;-91
2021/07/10 10:34:19;;;;;;;4.72;3.28;;;;;;;;;;6185871;23;19997;-93
2021/07/10 10:36:47;;;;;;;4.00;2.45;;;;;;;;;;6161594;23;20009;-96
2021/07/10 10:39:20;;;;;;;5.03;2.50;;;;;;;;;;6161021;23;20371;-95
2021/07/10 10:44:48;;;;;;;4.05;2.50;;;;;;;;;;6035701;23;20019;-94
2021/07/10 10:47:27;;;;;;;4.13;2.88;;;;;;;;;;6014192;23;20469;-95
2021/07/10 10:50:17;;;;;;;7.18;2.50;;;;;;;;;;6012359;23;20004;-94
2021/07/10 10:53:00;;;;;;;2.67;2.33;;;;;;;;;;6013941;23;21155;-94
2021/07/10 10:55:37;;;;;;;2.92;2.33;;;;;;;;;;6013960;23;20034;-94
2021/07/10 10:58:22;;;;;;;5.97;2.50;;;;;;;;;;6014112;23;20090;-93
2021/07/10 11:01:06;;;;;;;3.75;2.60;;;;;;;;;;6012699;23;20007;-94
2021/07/10 11:03:39;;;;;;;3.00;2.28;;;;;;;;;;6013306;23;20485;-94
2021/07/10 11:06:06;;;;;;;3.78;2.65;;;;;;;;;;6013923;23;20442;-94
2021/07/10 11:09:08;;;;;;;4.47;2.63;;;;;;;;;;5985690;23;20008;-94
2021/07/10 11:11:57;;;;;;;4.60;2.70;;;;;;;;;;5926275;24;20345;-95
2021/07/10 11:14:28;;;;;;;4.20;2.60;;;;;;;;;;5903052;24;20005;-94
2021/07/10 11:17:05;;;;;;;2.70;2.50;;;;;;;;;;5900965;24;20013;-92
2021/07/10 11:19:45;;;;;;;4.05;2.65;;;;;;;;;;5924669;24;20005;-94
2021/07/10 11:22:50;;;;;;;3.28;2.50;;;;;;;;;;5981450;23;20004;-91
2021/07/10 11:26:02;;;;;;;2.42;2.22;;;;;;;;;;5953488;24;20460;-95
2021/07/10 11:28:53;;;;;;;2.75;2.50;;;;;;;;;;5925121;24;20005;-94
2021/07/10 11:31:40;;;;;;;2.95;2.30;;;;;;;;;;5981570;23;20052;-96
2021/07/10 11:34:11;;;;;;;2.60;2.20;;;;;;;;;;5983809;23;20027;-96
2021/07/10 11:36:48;;;;;;;;;;;;;;;;;;5985863;23;20032;-96
2021/07/10 11:39:22;;;;;;;3.20;2.20;;;;;;;;;;5984130;23;20373;-94
2021/07/10 11:41:59;;;;;;;2.75;2.47;;;;;;;;;;6007711;23;20011;-94
2021/07/10 11:44:28;;;;;;;3.53;2.05;;;;;;;;;;6006950;23;20031;-93
2021/07/10 11:46:56;;;;;;;4.90;2.25;;;;;;;;;;6007601;23;20011;-93
2021/07/10 11:49:40;;;;;;;3.35;2.38;;;;;;;;;;6141706;23;20009;-93
2021/07/10 11:52:43;;;;;;;5.88;1.95;;;;;;;;;;6129209;23;20068;-93
2021/07/10 11:55:28;;;;;;;3.78;2.17;;;;;;;;;;6136345;23;20022;-92
2021/07/10 11:58:10;;;;;;;2.65;2.05;;;;;;;;;;6153958;23;20013;-94
2021/07/10 12:01:10;;;;;;;3.35;2.30;;;;;;;;;;6153889;23;20001;-93
2021/07/10 12:07:40;;;;;;;2.80;2.10;;;;;;;;;;6155034;23;20021;-94
2021/07/10 12:11:19;;;;;;;4.03;2.65;;;;;;;;;;6153959;23;20080;-93
2021/07/10 12:13:35;;;;;;;3.25;2.10;;;;;;;;;;6150976;23;20014;-95
2021/07/10 12:16:10;;;;;;;2.47;2.17;;;;;;;;;;6153506;23;20067;-93
2021/07/10 12:18:37;;;;;;;3.03;2.15;;;;;;;;;;6153466;23;20009;-93
2021/07/10 12:21:07;;;;;;;3.25;2.10;;;;;;;;;;6153532;23;20001;-94
2021/07/10 12:23:39;;;;;;;2.97;2.17;;;;;;;;;;6154803;23;20055;-92
2021/07/10 12:26:11;;;;;;;6.15;2.10;;;;;;;;;;6152171;23;20342;-90
2021/07/10 12:28:54;;;;;;;2.70;2.42;;;;;;;;;;6153741;23;20051;-91
2021/07/10 12:31:35;;;;;;;3.78;2.00;;;;;;;;;;6151807;23;20067;-92
2021/07/10 12:34:15;;;;;;;2.72;2.10;;;;;;;;;;6154124;23;20428;-96
2021/07/10 12:36:46;;;;;;;4.22;1.80;;;;;;;;;;6153862;23;19997;-95
2021/07/10 12:39:21;;;;;;;4.03;2.20;;;;;;;;;;6153610;23;20013;-94
2021/07/10 12:41:54;;;;;;;2.53;1.98;;;;;;;;;;6152346;23;20036;-94
2021/07/10 12:44:32;;;;;;;2.35;2.00;;;;;;;;;;6153143;23;20399;-94
2021/07/10 12:47:19;;;;;;;8.38;2.47;;;;;;;;;;6152764;23;20424;-92
2021/07/10 12:49:56;;;;;;;5.47;2.03;;;;;;;;;;6154199;23;20009;-95
2021/07/10 12:53:00;;;;;;;4.38;2.38;;;;;;;;;;6152456;23;20052;-93
2021/07/10 12:55:28;;;;;;;2.00;1.70;;;;;;;;;;6144237;23;20458;-93
2021/07/10 12:57:57;;;;;;;1.88;1.75;;;;;;;;;;6153208;23;20443;-96
2021/07/10 13:00:32;;;;;;;2.72;2.17;;;;;;;;;;6154372;23;20009;-96
2021/07/10 13:03:03;;;;;;;4.20;1.95;;;;;;;;;;6153072;23;20010;-95
2021/07/10 13:06:02;;;;;;;2.45;2.08;;;;;;;;;;6153706;23;20001;-95
2021/07/10 13:08:29;;;;;;;3.25;2.08;;;;;;;;;;6093728;23;20009;-93
2021/07/10 13:11:00;;;;;;;1.80;1.63;;;;;;;;;;6068859;23;20330;-94
2021/07/10 13:13:35;;;;;;;2.78;1.60;;;;;;;;;;6070206;23;20002;-93
2021/07/10 13:16:10;;;;;;;2.10;1.50;;;;;;;;;;6070717;23;20012;-94
2021/07/10 13:18:56;;;;;;;2.55;1.63;;;;;;;;;;6094436;23;20037;-94
2021/07/10 13:21:30;;;;;;;1.38;1.10;;;;;;;;;;6069977;23;20003;-94
2021/07/10 13:23:57;;;;;;;3.05;1.20;;;;;;;;;;6069119;23;20122;-93
2021/07/10 13:26:31;;;;;;;1.23;1.13;;;;;;;;;;6068963;23;20031;-93
2021/07/10 13:29:18;;;;;;;3.10;1.50;;;;;;;;;;6068766;23;20013;-93
2021/07/10 13:31:58;;;;;;;1.23;1.13;;;;;;;;;;6070369;23;20010;-92
2021/07/10 13:34:26;;;;;;;2.30;1.55;;;;;;;;;;6071173;23;20006;-93
2021/07/10 13:36:54;;;;;;;4.45;1.77;;;;;;;;;;6094872;23;20003;-92
2021/07/10 13:39:25;;;;;;;2.17;1.38;;;;;;;;;;6070456;23;20433;-92
2021/07/10 13:41:53;;;;;;;1.42;1.13;;;;;;;;;;6069346;23;20405;-93
2021/07/10 13:44:22;;;;;;;1.48;1.10;;;;;;;;;;6120637;23;20013;-92
2021/07/10 13:46:56;;;;;;;1.40;0.90;;;;;;;;;;6153780;23;20075;-94
2021/07/10 13:49:36;;;;;;;1.38;1.00;;;;;;;;;;6154714;23;19998;-93
2021/07/10 13:52:06;;;;;;;1.80;1.13;;;;;;;;;;6155215;23;20004;-92
2021/07/10 13:54:52;;;;;;;1.65;1.30;;;;;;;;;;6155054;23;20257;-94
2021/07/10 13:57:30;;;;;;;0.98;0.90;;;;;;;;;;6154347;23;20005;-93
2021/07/10 14:00:02;;;;;;;1.35;1.20;;;;;;;;;;6154152;23;20005;-92
2021/07/10 14:02:30;;;;;;;1.70;1.10;;;;;;;;;;6154931;23;20025;-93
2021/07/10 14:05:21;;;;;;;1.20;1.10;;;;;;;;;;6154085;23;20009;-94
2021/07/10 14:07:49;;;;;;;2.22;1.40;;;;;;;;;;6146180;23;20037;-93
2021/07/10 14:10:20;;;;;;;2.63;1.25;;;;;;;;;;6153662;23;20088;-92
2021/07/10 14:12:47;;;;;;;4.82;1.92;;;;;;;;;;6153835;23;20002;-89
2021/07/10 14:15:14;;;;;;;2.40;1.10;;;;;;;;;;6153962;23;20059;-92
2021/07/10 14:17:40;;;;;;;1.80;1.23;;;;;;;;;;6153011;23;20345;-92
2021/07/10 14:20:10;;;;;;;2.28;1.52;;;;;;;;;;6153728;23;20006;-92
2021/07/10 14:22:35;;;;;;;5.85;1.90;;;;;;;;;;6153301;23;20005;-92
2021/07/10 14:25:04;;;;;;;7.05;1.73;;;;;;;;;;6154655;23;20001;-92
2021/07/10 14:27:29;;;;;;;2.28;1.50;;;;;;;;;;6152849;23;20064;-91
2021/07/10 14:29:55;;;;;;;1.23;1.00;;;;;;;;;;6152674;23;20005;-88
